createdAt,value
2019-01-21T00:00:15.611Z,21.80
2019-01-21T00:02:44.129Z,21.65
2019-01-21T00:05:12.623Z,23.20
2019-01-21T00:07:41.089Z,24.35
2019-01-21T00:10:09.591Z,24.52
2019-01-21T00:12:38.045Z,22.77
2019-01-21T00:15:08.506Z,22.45
2019-01-21T00:17:36.930Z,23.15
2019-01-21T00:20:06.902Z,23.98
2019-01-21T00:22:35.329Z,22.77
2019-01-21T00:25:04.940Z,22.02
2019-01-21T00:27:33.374Z,21.73
2019-01-21T00:30:01.846Z,23.73
2019-01-21T00:32:30.272Z,23.67
2019-01-21T00:34:58.707Z,22.40
2019-01-21T00:37:27.130Z,21.82
2019-01-21T00:39:55.575Z,20.68
2019-01-21T00:42:24.010Z,23.90
2019-01-21T00:44:52.454Z,21.90
2019-01-21T00:47:20.878Z,22.35
2019-01-21T00:49:49.356Z,21.85
2019-01-21T00:52:17.767Z,22.50
2019-01-21T00:54:46.213Z,22.80
2019-01-21T00:57:14.644Z,23.25
2019-01-21T00:59:43.095Z,23.70
2019-01-21T01:02:11.608Z,22.00
2019-01-21T01:04:41.563Z,23.60
2019-01-21T01:07:09.959Z,20.25
2019-01-21T01:09:38.386Z,21.45
2019-01-21T01:12:06.919Z,20.35
2019-01-21T01:14:35.375Z,20.97
2019-01-21T01:17:03.939Z,19.12
2019-01-21T01:19:32.392Z,21.30
2019-01-21T01:22:00.840Z,20.57
2019-01-21T01:24:29.271Z,20.85
2019-01-21T01:26:57.727Z,21.10
2019-01-21T01:29:26.214Z,20.50
2019-01-21T01:31:54.671Z,20.00
2019-01-21T01:34:23.094Z,20.05
2019-01-21T01:36:51.535Z,21.48
2019-01-21T01:39:19.963Z,18.82
2019-01-21T01:41:48.407Z,20.12
2019-01-21T01:44:16.829Z,20.68
2019-01-21T01:46:45.659Z,19.15
2019-01-21T01:49:14.096Z,19.10
2019-01-21T01:51:42.547Z,19.20
2019-01-21T01:54:11.137Z,20.17
2019-01-21T01:56:39.596Z,19.77
2019-01-21T01:59:08.405Z,19.62
2019-01-21T02:01:36.481Z,20.02
2019-01-21T02:04:05.182Z,20.25
2019-01-21T02:06:33.627Z,19.20
2019-01-21T02:09:02.147Z,21.97
2019-01-21T02:11:30.657Z,20.90
2019-01-21T02:13:59.154Z,19.95
2019-01-21T02:16:27.578Z,17.95
2019-01-21T02:18:56.027Z,18.07
2019-01-21T02:21:26.795Z,19.60
2019-01-21T02:23:58.367Z,20.70
2019-01-21T02:26:29.896Z,20.72
2019-01-21T02:29:01.460Z,20.27
2019-01-21T02:31:38.652Z,19.73
2019-01-21T02:34:34.552Z,19.95
2019-01-21T02:37:14.641Z,19.90
2019-01-21T02:40:02.759Z,18.65
2019-01-21T02:42:54.890Z,19.85
2019-01-21T02:45:41.730Z,18.90
2019-01-21T02:48:15.804Z,20.10
2019-01-21T02:50:56.232Z,18.82
2019-01-21T02:53:36.461Z,18.95
2019-01-21T02:56:17.068Z,19.73
2019-01-21T02:59:00.640Z,19.10
2019-01-21T03:01:47.921Z,18.87
2019-01-21T03:04:38.760Z,18.25
2019-01-21T03:07:16.455Z,19.27
2019-01-21T03:09:53.513Z,18.65
2019-01-21T03:12:42.607Z,19.20
2019-01-21T03:15:26.243Z,18.73
2019-01-21T03:18:31.550Z,18.62
2019-01-21T03:21:17.890Z,19.20
2019-01-21T03:24:16.803Z,19.48
2019-01-21T03:27:00.450Z,19.10
2019-01-21T03:29:53.079Z,19.98
2019-01-21T03:32:53.084Z,19.00
2019-01-21T03:35:30.632Z,18.65
2019-01-21T03:38:23.428Z,18.37
2019-01-21T03:41:03.565Z,19.75
2019-01-21T03:43:47.134Z,20.52
2019-01-21T03:46:45.791Z,19.20
2019-01-21T03:49:20.296Z,20.48
2019-01-21T03:52:20.668Z,19.95
2019-01-21T03:54:50.241Z,19.05
2019-01-21T03:57:24.644Z,19.60
2019-01-21T03:59:56.191Z,19.75
2019-01-21T04:02:30.414Z,20.08
2019-01-21T04:05:11.043Z,20.55
2019-01-21T04:07:45.408Z,21.17
2019-01-21T04:10:38.202Z,22.98
2019-01-21T04:13:15.676Z,19.52
2019-01-21T04:15:59.146Z,19.98
2019-01-21T04:18:36.341Z,19.23
2019-01-21T04:21:24.663Z,22.00
2019-01-21T04:24:17.379Z,18.85
2019-01-21T04:27:15.557Z,21.45
2019-01-21T04:30:01.923Z,20.97
2019-01-21T04:32:54.626Z,19.55
2019-01-21T04:35:38.023Z,20.35
2019-01-21T04:38:30.237Z,20.25
2019-01-21T04:41:18.671Z,21.73
2019-01-21T04:44:01.756Z,21.70
2019-01-21T04:47:06.731Z,20.60
2019-01-21T04:49:59.466Z,20.65
2019-01-21T04:52:42.787Z,19.35
2019-01-21T04:55:23.030Z,21.45
2019-01-21T04:58:10.989Z,20.92
2019-01-21T05:01:00.483Z,20.82
2019-01-21T05:03:49.938Z,22.25
2019-01-21T05:06:36.871Z,21.62
2019-01-21T05:09:20.626Z,20.85
2019-01-21T05:12:09.101Z,19.50
2019-01-21T05:14:58.811Z,19.98
2019-01-21T05:17:49.750Z,22.27
2019-01-21T05:20:26.455Z,22.15
2019-01-21T05:23:15.836Z,23.10
2019-01-21T05:25:53.159Z,20.75
2019-01-21T05:28:47.224Z,21.75
2019-01-21T05:31:30.482Z,22.10
2019-01-21T05:34:04.668Z,20.85
2019-01-21T05:36:36.215Z,20.32
2019-01-21T05:39:29.334Z,23.02
2019-01-21T05:42:28.042Z,21.25
2019-01-21T05:45:20.052Z,21.90
2019-01-21T05:48:03.771Z,21.33
2019-01-21T05:50:47.341Z,20.20
2019-01-21T05:53:27.720Z,23.22
2019-01-21T05:56:17.031Z,23.15
2019-01-21T05:58:48.632Z,22.93
2019-01-21T06:01:36.948Z,22.52
2019-01-21T06:04:10.969Z,22.95
2019-01-21T06:06:42.455Z,24.12
2019-01-21T06:09:22.893Z,27.77
2019-01-21T06:11:57.091Z,29.50
2019-01-21T06:14:57.288Z,23.98
2019-01-21T06:17:53.130Z,22.75
2019-01-21T06:20:36.464Z,29.02
2019-01-21T06:23:14.110Z,31.65
2019-01-21T06:26:03.713Z,26.37
2019-01-21T06:28:54.876Z,27.25
2019-01-21T06:31:41.463Z,26.23
2019-01-21T06:34:35.790Z,28.32
2019-01-21T06:37:22.131Z,26.60
2019-01-21T06:40:19.267Z,27.87
2019-01-21T06:42:56.640Z,24.80
2019-01-21T06:45:55.498Z,26.70
2019-01-21T06:49:04.611Z,26.50
2019-01-21T06:51:53.072Z,28.95
2019-01-21T06:54:47.430Z,27.75
2019-01-21T06:57:27.535Z,28.02
2019-01-21T07:00:23.527Z,31.17
2019-01-21T07:02:57.698Z,27.10
2019-01-21T07:05:40.865Z,28.30
2019-01-21T07:08:18.466Z,29.80
2019-01-21T07:10:53.003Z,29.05
2019-01-21T07:13:39.442Z,31.17
2019-01-21T07:16:30.770Z,29.15
2019-01-21T07:19:25.054Z,31.52
2019-01-21T07:22:18.058Z,30.52
2019-01-21T07:25:01.365Z,30.40
2019-01-21T07:27:47.823Z,30.10
2019-01-21T07:30:48.223Z,30.95
2019-01-21T07:33:48.774Z,30.32
2019-01-21T07:36:32.331Z,30.10
2019-01-21T07:39:18.835Z,29.87
2019-01-21T07:42:04.841Z,30.70
2019-01-21T07:44:45.426Z,31.15
2019-01-21T07:47:19.912Z,31.25
2019-01-21T07:49:57.378Z,33.23
2019-01-21T07:52:40.618Z,32.75
2019-01-21T07:55:31.722Z,33.70
2019-01-21T07:58:19.683Z,33.02
2019-01-21T08:01:02.980Z,30.37
2019-01-21T08:03:49.746Z,29.35
2019-01-21T08:06:40.586Z,30.57
2019-01-21T08:09:20.681Z,33.55
2019-01-21T08:12:09.689Z,33.23
2019-01-21T08:14:53.266Z,32.78
2019-01-21T08:17:41.601Z,33.75
2019-01-21T08:20:34.451Z,34.60
2019-01-21T08:23:08.644Z,30.88
2019-01-21T08:25:57.692Z,32.70
2019-01-21T08:28:44.278Z,32.28
2019-01-21T08:31:30.781Z,33.58
2019-01-21T08:34:14.155Z,32.42
2019-01-21T08:36:51.494Z,34.60
2019-01-21T08:39:39.687Z,34.23
2019-01-21T08:42:35.335Z,34.35
2019-01-21T08:45:25.271Z,33.10
2019-01-21T08:47:59.684Z,34.48
2019-01-21T08:50:43.093Z,33.35
2019-01-21T08:53:25.875Z,32.55
2019-01-21T08:56:03.530Z,33.88
2019-01-21T08:58:53.363Z,32.00
2019-01-21T09:01:36.729Z,31.20
2019-01-21T09:04:27.579Z,32.90
2019-01-21T09:07:10.802Z,31.73
2019-01-21T09:09:45.173Z,37.00
2019-01-21T09:12:19.239Z,36.00
2019-01-21T09:15:05.334Z,32.83
2019-01-21T09:17:40.006Z,35.48
2019-01-21T09:20:39.825Z,36.77
2019-01-21T09:23:47.751Z,34.10
2019-01-21T09:26:24.559Z,34.27
2019-01-21T09:29:14.119Z,33.80
2019-01-21T09:32:06.227Z,33.18
2019-01-21T09:34:54.278Z,34.20
2019-01-21T09:37:34.863Z,35.43
2019-01-21T09:40:18.672Z,36.98
2019-01-21T09:42:52.883Z,36.25
2019-01-21T09:45:50.306Z,35.33
2019-01-21T09:48:17.691Z,37.05
2019-01-21T09:50:47.462Z,34.85
2019-01-21T09:53:16.115Z,35.55
2019-01-21T09:55:47.650Z,33.35
2019-01-21T09:58:16.547Z,35.65
2019-01-21T10:00:45.068Z,35.63
2019-01-21T10:03:13.854Z,34.92
2019-01-21T10:05:45.366Z,39.08
2019-01-21T10:08:19.503Z,37.33
2019-01-21T10:11:10.287Z,35.52
2019-01-21T10:13:47.462Z,35.50
2019-01-21T10:16:38.407Z,36.00
2019-01-21T10:19:24.974Z,37.00
2019-01-21T10:22:08.218Z,35.40
2019-01-21T10:24:57.551Z,34.88
2019-01-21T10:27:37.901Z,34.58
2019-01-21T10:30:25.883Z,35.23
2019-01-21T10:32:59.979Z,34.92
2019-01-21T10:35:49.199Z,34.05
2019-01-21T10:38:55.542Z,31.52
2019-01-21T10:41:27.083Z,32.67
2019-01-21T10:44:01.162Z,32.83
2019-01-21T10:46:38.281Z,33.98
2019-01-21T10:49:15.522Z,32.25
2019-01-21T10:51:49.640Z,35.70
2019-01-21T10:54:32.954Z,34.03
2019-01-21T10:57:33.502Z,33.08
2019-01-21T11:00:38.218Z,32.78
2019-01-21T11:03:12.594Z,34.73
2019-01-21T11:05:46.777Z,33.33
2019-01-21T11:08:33.616Z,34.67
2019-01-21T11:11:05.130Z,35.52
2019-01-21T11:13:42.600Z,35.78
2019-01-21T11:16:16.858Z,34.00
2019-01-21T11:18:54.363Z,35.78
2019-01-21T11:21:28.480Z,35.45
2019-01-21T11:24:14.478Z,35.75
2019-01-21T11:27:14.834Z,35.75
2019-01-21T11:29:54.859Z,33.63
2019-01-21T11:32:32.194Z,35.00
2019-01-21T11:35:15.114Z,36.35
2019-01-21T11:38:01.399Z,32.33
2019-01-21T11:40:42.054Z,34.43
2019-01-21T11:43:13.631Z,34.83
2019-01-21T11:45:45.287Z,33.83
2019-01-21T11:48:33.566Z,36.00
2019-01-21T11:51:27.675Z,33.50
2019-01-21T11:54:11.071Z,36.00
2019-01-21T11:56:51.846Z,33.42
2019-01-21T11:59:29.071Z,34.78
2019-01-21T12:02:06.576Z,34.60
2019-01-21T12:04:46.865Z,34.18
2019-01-21T12:07:26.839Z,33.18
2019-01-21T12:10:19.455Z,31.60
2019-01-21T12:13:07.243Z,31.97
2019-01-21T12:16:00.805Z,32.17
2019-01-21T12:18:35.235Z,34.20
2019-01-21T12:21:12.935Z,32.58
2019-01-21T12:23:44.445Z,34.95
2019-01-21T12:26:24.786Z,33.10
2019-01-21T12:29:08.103Z,30.92
2019-01-21T12:32:00.923Z,35.38
2019-01-21T12:34:32.482Z,34.25
2019-01-21T12:37:04.024Z,35.75
2019-01-21T12:39:47.499Z,32.40
2019-01-21T12:42:19.139Z,33.85
2019-01-21T12:44:56.119Z,36.95
2019-01-21T12:47:33.637Z,31.45
2019-01-21T12:50:37.095Z,33.55
2019-01-21T12:53:17.559Z,34.58
2019-01-21T12:56:07.015Z,34.25
2019-01-21T12:59:06.108Z,36.80
2019-01-21T13:01:46.614Z,36.23
2019-01-21T13:04:24.031Z,36.58
2019-01-21T13:07:01.475Z,36.15
2019-01-21T13:09:52.418Z,33.38
2019-01-21T13:12:40.373Z,33.53
2019-01-21T13:15:29.974Z,34.33
2019-01-21T13:18:07.169Z,32.90
2019-01-21T13:20:53.484Z,31.60
2019-01-21T13:23:30.971Z,33.20
2019-01-21T13:26:19.508Z,32.98
2019-01-21T13:29:09.051Z,35.03
2019-01-21T13:31:40.639Z,34.20
2019-01-21T13:34:12.195Z,34.95
2019-01-21T13:37:00.280Z,34.85
2019-01-21T13:39:48.397Z,30.55
2019-01-21T13:42:19.930Z,32.55
2019-01-21T13:44:54.119Z,34.33
2019-01-21T13:47:34.263Z,35.58
2019-01-21T13:50:28.253Z,31.10
2019-01-21T13:53:11.086Z,33.67
2019-01-21T13:55:42.647Z,31.17
2019-01-21T13:58:34.030Z,31.62
2019-01-21T14:01:14.198Z,31.45
2019-01-21T14:03:57.867Z,31.82
2019-01-21T14:06:49.843Z,29.70
2019-01-21T14:09:39.465Z,31.23
2019-01-21T14:12:30.720Z,30.10
2019-01-21T14:15:08.094Z,30.82
2019-01-21T14:17:45.185Z,32.75
2019-01-21T14:20:22.242Z,33.53
2019-01-21T14:23:17.979Z,34.13
2019-01-21T14:26:09.892Z,31.75
2019-01-21T14:29:00.854Z,30.27
2019-01-21T14:31:50.354Z,31.07
2019-01-21T14:34:38.639Z,30.70
2019-01-21T14:37:28.300Z,31.65
2019-01-21T14:40:02.646Z,30.00
2019-01-21T14:42:35.222Z,31.87
2019-01-21T14:45:23.155Z,30.95
2019-01-21T14:47:56.324Z,30.85
2019-01-21T14:50:43.094Z,30.72
2019-01-21T14:53:29.654Z,31.85
2019-01-21T14:56:09.552Z,29.50
2019-01-21T14:58:57.542Z,30.77
2019-01-21T15:01:31.717Z,32.23
2019-01-21T15:04:09.202Z,31.82
2019-01-21T15:07:01.751Z,28.50
2019-01-21T15:09:45.391Z,30.10
2019-01-21T15:12:19.695Z,26.77
2019-01-21T15:15:05.896Z,29.30
2019-01-21T15:17:49.474Z,29.15
2019-01-21T15:20:21.047Z,28.05
2019-01-21T15:23:07.444Z,27.62
2019-01-21T15:25:53.692Z,25.65
2019-01-21T15:28:39.002Z,26.12
2019-01-21T15:31:19.138Z,26.42
2019-01-21T15:34:09.068Z,26.33
2019-01-21T15:36:55.459Z,25.68
2019-01-21T15:39:32.870Z,31.65
2019-01-21T15:42:07.135Z,25.85
2019-01-21T15:44:41.510Z,27.10
2019-01-21T15:47:31.257Z,27.00
2019-01-21T15:50:21.155Z,25.92
2019-01-21T15:53:07.538Z,27.37
2019-01-21T15:55:50.320Z,24.40
2019-01-21T15:58:24.695Z,24.07
2019-01-21T16:01:05.127Z,25.55
2019-01-21T16:03:51.788Z,25.10
2019-01-21T16:06:41.579Z,26.52
2019-01-21T16:09:16.042Z,25.88
2019-01-21T16:11:50.239Z,28.27
2019-01-21T16:14:21.281Z,24.50
2019-01-21T16:17:16.964Z,22.82
2019-01-21T16:19:45.487Z,22.93
2019-01-21T16:22:35.007Z,23.83
2019-01-21T16:25:09.016Z,22.98
2019-01-21T16:27:57.167Z,24.00
2019-01-21T16:30:31.402Z,26.75
2019-01-21T16:33:26.907Z,24.30
2019-01-21T16:36:31.684Z,25.80
2019-01-21T16:39:04.420Z,23.95
2019-01-21T16:41:52.607Z,21.87
2019-01-21T16:44:21.072Z,25.92
2019-01-21T16:46:49.591Z,21.55
2019-01-21T16:49:18.071Z,25.62
2019-01-21T16:51:46.531Z,24.47
2019-01-21T16:54:15.046Z,24.75
2019-01-21T16:56:43.484Z,24.12
2019-01-21T16:59:11.962Z,26.12
2019-01-21T17:01:40.384Z,25.62
2019-01-21T17:04:08.926Z,27.35
2019-01-21T17:06:39.591Z,24.90
2019-01-21T17:09:10.224Z,24.30
2019-01-21T17:11:38.718Z,29.77
2019-01-21T17:14:08.825Z,32.67
2019-01-21T17:16:37.276Z,29.95
2019-01-21T17:19:05.884Z,28.38
2019-01-21T17:24:04.268Z,25.92
2019-01-21T17:26:32.872Z,25.23
2019-01-21T17:29:01.301Z,24.67
2019-01-21T17:31:29.764Z,22.13
2019-01-21T17:33:58.200Z,24.05
2019-01-21T18:09:08.378Z,35.58
2019-01-21T18:11:41.311Z,38.80
2019-01-21T18:14:07.266Z,42.33
2019-01-21T18:16:35.717Z,37.10
2019-01-21T18:19:04.635Z,31.93
2019-01-21T18:21:33.099Z,31.93
2019-01-21T18:24:01.602Z,31.90
2019-01-21T18:26:30.103Z,26.93
2019-01-21T18:28:58.642Z,33.30
2019-01-21T18:31:27.100Z,33.95
2019-01-21T18:33:55.556Z,30.00
2019-01-21T18:36:24.078Z,34.27
2019-01-21T18:38:52.536Z,35.08
2019-01-21T18:41:20.991Z,29.70
2019-01-21T18:43:49.503Z,30.50
2019-01-21T18:46:17.979Z,27.37
2019-01-21T18:48:46.594Z,22.32
2019-01-21T18:51:15.107Z,29.37
2019-01-21T18:53:43.566Z,32.05
2019-01-21T18:56:11.996Z,28.67
2019-01-21T18:58:41.220Z,26.90
2019-01-21T19:01:09.639Z,26.50
2019-01-21T19:03:38.182Z,27.40
2019-01-21T19:06:06.705Z,28.50
2019-01-21T19:08:35.242Z,28.75
2019-01-21T19:11:03.678Z,28.32
2019-01-21T19:13:32.135Z,28.05
2019-01-21T19:16:00.604Z,30.97
2019-01-21T19:18:29.043Z,30.32
2019-01-21T19:20:57.646Z,30.15
2019-01-21T19:23:26.164Z,25.97
2019-01-21T19:25:54.650Z,26.17
2019-01-21T19:28:23.157Z,24.70
2019-01-21T19:30:51.773Z,24.72
2019-01-21T19:33:20.199Z,26.90
2019-01-21T19:35:48.825Z,27.32
2019-01-21T19:38:17.258Z,27.50
2019-01-21T19:40:45.720Z,28.77
2019-01-21T19:43:14.158Z,27.02
2019-01-21T19:45:43.318Z,28.35
2019-01-21T19:48:12.017Z,31.57
2019-01-21T19:50:40.469Z,27.70
2019-01-21T19:53:08.935Z,24.80
2019-01-21T19:55:39.704Z,25.17
2019-01-21T19:58:08.916Z,25.75
2019-01-21T20:00:37.816Z,25.57
2019-01-21T20:03:08.091Z,23.92
2019-01-21T20:05:36.764Z,25.17
2019-01-21T20:08:05.337Z,24.80
2019-01-21T20:10:33.854Z,28.73
2019-01-21T20:13:02.484Z,26.68
2019-01-21T20:15:31.025Z,27.42
2019-01-21T20:17:59.624Z,24.57
2019-01-21T20:20:33.809Z,28.80
2019-01-21T20:23:02.422Z,29.95
2019-01-21T20:25:30.851Z,26.55
2019-01-21T20:27:59.423Z,26.68
2019-01-21T20:30:27.867Z,27.95
2019-01-21T20:32:56.393Z,24.90
2019-01-21T20:35:24.929Z,28.20
2019-01-21T20:37:53.453Z,25.23
2019-01-21T20:40:24.497Z,24.72
2019-01-21T20:42:53.140Z,27.25
2019-01-21T20:45:21.866Z,27.37
2019-01-21T20:47:50.625Z,27.55
2019-01-21T20:50:24.710Z,29.15
2019-01-21T20:52:54.072Z,25.80
2019-01-21T20:55:22.583Z,29.18
2019-01-21T20:57:51.108Z,26.42
2019-01-21T21:00:21.878Z,29.95
2019-01-21T21:02:51.931Z,26.45
2019-01-21T21:05:20.461Z,26.20
2019-01-21T21:07:48.998Z,29.48
2019-01-21T21:10:19.810Z,29.72
2019-01-21T21:12:48.262Z,28.87
2019-01-21T21:15:20.180Z,27.07
2019-01-21T21:17:48.682Z,28.12
2019-01-21T21:20:17.302Z,28.35
2019-01-21T21:22:45.806Z,28.73
2019-01-21T21:25:19.577Z,26.97
2019-01-21T21:27:48.150Z,23.75
2019-01-21T21:30:20.040Z,24.25
2019-01-21T21:32:48.559Z,24.87
2019-01-21T21:35:17.079Z,25.12
2019-01-21T21:37:45.520Z,25.85
2019-01-21T21:40:22.104Z,25.55
2019-01-21T21:42:50.541Z,29.25
2019-01-21T21:45:21.225Z,24.95
2019-01-21T21:47:50.094Z,26.85
2019-01-21T21:50:24.603Z,25.75
2019-01-21T21:52:53.171Z,26.87
2019-01-21T21:55:21.650Z,26.75
2019-01-21T21:57:50.096Z,26.02
2019-01-21T22:00:24.779Z,26.12
2019-01-21T22:02:53.278Z,26.65
2019-01-21T22:05:22.046Z,25.77
2019-01-21T22:07:50.707Z,24.55
2019-01-21T22:10:24.475Z,25.48
2019-01-21T22:12:53.020Z,25.30
2019-01-21T22:15:23.084Z,28.05
2019-01-21T22:17:51.527Z,25.40
2019-01-21T22:20:21.808Z,27.80
2019-01-21T22:22:50.363Z,27.07
2019-01-21T22:25:19.240Z,27.40
2019-01-21T22:27:47.834Z,30.27
2019-01-21T22:30:21.566Z,30.50
2019-01-21T22:32:50.168Z,29.45
2019-01-21T22:35:18.667Z,27.50
2019-01-21T22:37:47.386Z,28.38
2019-01-21T22:40:20.556Z,28.38
2019-01-21T22:42:49.287Z,30.92
2019-01-21T22:45:18.960Z,29.60
2019-01-21T22:47:47.409Z,27.85
2019-01-21T22:50:17.365Z,27.80
2019-01-21T22:52:45.956Z,28.40
2019-01-21T22:55:15.936Z,27.82
2019-01-21T22:57:44.570Z,29.25
2019-01-21T23:00:32.892Z,29.72
2019-01-21T23:03:01.353Z,27.10
2019-01-21T23:05:29.779Z,28.30
2019-01-21T23:07:58.307Z,28.73
2019-01-21T23:10:26.802Z,27.87
2019-01-21T23:12:55.698Z,27.27
2019-01-21T23:15:24.122Z,29.35
2019-01-21T23:17:52.642Z,26.30
2019-01-21T23:20:21.200Z,30.57
2019-01-21T23:22:49.962Z,27.60
2019-01-21T23:25:18.496Z,28.42
2019-01-21T23:27:46.994Z,27.67
2019-01-21T23:30:18.483Z,29.00
2019-01-21T23:32:46.906Z,28.65
2019-01-21T23:35:15.452Z,26.95
2019-01-21T23:37:43.931Z,28.17
2019-01-21T23:40:13.186Z,29.30
2019-01-21T23:42:41.784Z,26.70
2019-01-21T23:45:11.375Z,28.40
2019-01-21T23:47:39.823Z,27.32
2019-01-21T23:50:11.479Z,29.32
2019-01-21T23:52:40.278Z,31.80
2019-01-21T23:55:10.662Z,30.15
2019-01-21T23:57:39.099Z,28.83
